Terminal Aerodrome Forecast
Issued by NWS Twin Cities, MN

Home | Current Version | Previous Version | Text Only | Print | Product List | Glossary On
Versions: 1 2 3 4 5 6 7 8 9 10 11 12 13 14 15 16
000
FTUS43 KMPX 021737
TAFEAU
TAF
KEAU 021737Z 0218/0318 26013G21KT P6SM VCSH SCT045 BKN150
     FM022000 30016G25KT P6SM VCTS SCT035CB BKN050 OVC120
      TEMPO 0220/0222 4SM SHRA BKN035
     FM030100 32009KT P6SM SCT060
     FM030600 28004KT P6SM SKC
     FM031500 30013G20KT P6SM SKC=

USA.gov is the U.S. government's official web portal to all federal, state and local government web resources and services.